Cambridge Airport

Airport
ICAO code: 
EGSC
IATA Code: 
CBG
Summary
ICAO Region: 
EUR
Territory: 
Location: 
Cambridge, England
Serving: 
Cambridge
Elevation: 
47 ft
Coordinates: 
Aerial View: 
52° 12' 24.941" N, 0° 10' 24.798" E
Metar
Observation
EGSC 081520Z 23015KT 9999 BKN032 07/01 Q0991
Station
Cambridge
Date/Time
2021-12-08 15:20:00
Wind direction
230°
Wind speed
15 kts
Lowest cloud amount
broken clouds
Temperature
7°C
Dew point
1°C
Humidity
65%
QNH
991 hPa
Weather condition
n/a

Description

International airport serving the university city of Cambridge, UK.

Climatology

Temperate Marine climate/Oceanic climate (Köppen climate classification Cfb). Moderately cool summer and comparatively warm winter with a temperature range of only 14°C. Prevailing south-westerly winds from the Atlantic Ocean.

Runways

Designator Length Width Surface Rops
10/28 699 35 GRS No/No
05R/23L 899 35 GRS No/No
5/23 1965 46 ASP Yes/Yes
Airport map: 
Aerial View: 

SKYbrary Partners:

Safety knowledge contributed by: